sensor_id;sensor_type;location;lat;lon;timestamp;temperature;humidity
45315;SHT31;31051;51.540;5.852;2023-06-24T00:11:09;18.2;77.8
45315;SHT31;31051;51.540;5.852;2023-06-24T00:24:08;18.7;75.4
45315;SHT31;31051;51.540;5.852;2023-06-24T00:36:56;18.7;74.1
45315;SHT31;31051;51.540;5.852;2023-06-24T00:49:45;18.6;75.9
45315;SHT31;31051;51.540;5.852;2023-06-24T01:02:44;18.1;77.2
45315;SHT31;31051;51.540;5.852;2023-06-24T01:15:32;17.5;78.6
45315;SHT31;31051;51.540;5.852;2023-06-24T01:28:21;17.1;82.8
45315;SHT31;31051;51.540;5.852;2023-06-24T01:41:21;16.5;83.6
45315;SHT31;31051;51.540;5.852;2023-06-24T01:54:20;16.5;83.0
45315;SHT31;31051;51.540;5.852;2023-06-24T02:07:20;16.3;83.6
45315;SHT31;31051;51.540;5.852;2023-06-24T02:20:18;16.0;84.3
45315;SHT31;31051;51.540;5.852;2023-06-24T02:33:07;15.9;83.7
45315;SHT31;31051;51.540;5.852;2023-06-24T02:46:07;15.8;83.4
45315;SHT31;31051;51.540;5.852;2023-06-24T02:59:06;15.6;83.7
45315;SHT31;31051;51.540;5.852;2023-06-24T03:12:05;15.3;87.9
45315;SHT31;31051;51.540;5.852;2023-06-24T03:25:05;15.3;87.4
45315;SHT31;31051;51.540;5.852;2023-06-24T03:38:04;15.2;87.5
45315;SHT31;31051;51.540;5.852;2023-06-24T03:51:02;15.2;87.1
45315;SHT31;31051;51.540;5.852;2023-06-24T04:03:52;15.3;87.6
45315;SHT31;31051;51.540;5.852;2023-06-24T04:16:51;15.3;87.1
45315;SHT31;31051;51.540;5.852;2023-06-24T04:29:50;15.4;87.5
45315;SHT31;31051;51.540;5.852;2023-06-24T04:42:50;15.4;87.7
45315;SHT31;31051;51.540;5.852;2023-06-24T04:55:48;15.8;89.0
45315;SHT31;31051;51.540;5.852;2023-06-24T05:08:38;16.1;86.7
45315;SHT31;31051;51.540;5.852;2023-06-24T05:21:37;16.7;84.3
45315;SHT31;31051;51.540;5.852;2023-06-24T05:34:35;17.3;80.7
45315;SHT31;31051;51.540;5.852;2023-06-24T05:47:24;18.0;75.3
45315;SHT31;31051;51.540;5.852;2023-06-24T06:00:13;18.6;73.1
45315;SHT31;31051;51.540;5.852;2023-06-24T06:13:11;19.2;71.7
45315;SHT31;31051;51.540;5.852;2023-06-24T06:26:00;19.9;69.0
45315;SHT31;31051;51.540;5.852;2023-06-24T06:38:48;20.8;65.6
45315;SHT31;31051;51.540;5.852;2023-06-24T06:51:36;21.3;62.1
45315;SHT31;31051;51.540;5.852;2023-06-24T07:04:26;21.3;61.4
45315;SHT31;31051;51.540;5.852;2023-06-24T07:17:24;21.4;57.6
45315;SHT31;31051;51.540;5.852;2023-06-24T07:30:13;22.0;54.5
45315;SHT31;31051;51.540;5.852;2023-06-24T07:43:02;22.4;55.3
45315;SHT31;31051;51.540;5.852;2023-06-24T07:56:00;22.9;57.1
45315;SHT31;31051;51.540;5.852;2023-06-24T08:08:49;23.0;55.1
45315;SHT31;31051;51.540;5.852;2023-06-24T08:21:38;22.8;53.4
45315;SHT31;31051;51.540;5.852;2023-06-24T08:34:38;22.8;52.9
45315;SHT31;31051;51.540;5.852;2023-06-24T08:47:36;23.4;53.4
45315;SHT31;31051;51.540;5.852;2023-06-24T09:00:25;23.4;53.2
45315;SHT31;31051;51.540;5.852;2023-06-24T09:13:13;23.6;52.2
45315;SHT31;31051;51.540;5.852;2023-06-24T09:26:01;24.1;48.8
45315;SHT31;31051;51.540;5.852;2023-06-24T09:39:00;24.5;47.8
45315;SHT31;31051;51.540;5.852;2023-06-24T09:51:47;24.6;43.6
45315;SHT31;31051;51.540;5.852;2023-06-24T10:04:35;25.2;46.4
45315;SHT31;31051;51.540;5.852;2023-06-24T10:17:22;25.8;42.5
45315;SHT31;31051;51.540;5.852;2023-06-24T10:30:10;26.0;41.4
45315;SHT31;31051;51.540;5.852;2023-06-24T10:42:57;26.5;39.2
45315;SHT31;31051;51.540;5.852;2023-06-24T10:55:44;27.0;39.0
45315;SHT31;31051;51.540;5.852;2023-06-24T11:08:32;27.5;42.4
45315;SHT31;31051;51.540;5.852;2023-06-24T11:21:19;27.3;41.9
45315;SHT31;31051;51.540;5.852;2023-06-24T11:34:07;27.7;37.2
45315;SHT31;31051;51.540;5.852;2023-06-24T11:46:54;28.0;37.0
45315;SHT31;31051;51.540;5.852;2023-06-24T11:59:43;28.4;35.9
45315;SHT31;31051;51.540;5.852;2023-06-24T12:12:30;28.5;38.0
45315;SHT31;31051;51.540;5.852;2023-06-24T12:25:17;29.0;37.6
45315;SHT31;31051;51.540;5.852;2023-06-24T12:38:05;29.8;37.6
45315;SHT31;31051;51.540;5.852;2023-06-24T12:50:52;29.8;37.3
45315;SHT31;31051;51.540;5.852;2023-06-24T13:03:40;30.8;37.0
45315;SHT31;31051;51.540;5.852;2023-06-24T13:16:27;30.2;37.4
45315;SHT31;31051;51.540;5.852;2023-06-24T13:29:15;29.7;36.5
45315;SHT31;31051;51.540;5.852;2023-06-24T13:42:02;30.1;35.3
45315;SHT31;31051;51.540;5.852;2023-06-24T13:54:50;29.8;36.1
45315;SHT31;31051;51.540;5.852;2023-06-24T14:07:37;29.4;36.9
45315;SHT31;31051;51.540;5.852;2023-06-24T14:20:25;29.4;35.9
45315;SHT31;31051;51.540;5.852;2023-06-24T14:33:12;30.0;37.2
45315;SHT31;31051;51.540;5.852;2023-06-24T14:46:00;29.6;38.7
45315;SHT31;31051;51.540;5.852;2023-06-24T14:58:48;29.8;36.7
45315;SHT31;31051;51.540;5.852;2023-06-24T15:11:35;29.6;37.2
45315;SHT31;31051;51.540;5.852;2023-06-24T15:24:22;29.6;39.3
45315;SHT31;31051;51.540;5.852;2023-06-24T15:37:10;29.2;40.3
45315;SHT31;31051;51.540;5.852;2023-06-24T15:49:58;29.7;39.4
45315;SHT31;31051;51.540;5.852;2023-06-24T16:02:45;30.1;39.3
45315;SHT31;31051;51.540;5.852;2023-06-24T16:15:32;29.6;38.9
45315;SHT31;31051;51.540;5.852;2023-06-24T16:28:20;30.4;37.7
45315;SHT31;31051;51.540;5.852;2023-06-24T16:41:07;30.1;36.0
45315;SHT31;31051;51.540;5.852;2023-06-24T16:53:55;29.3;40.7
45315;SHT31;31051;51.540;5.852;2023-06-24T17:06:42;29.2;40.1
45315;SHT31;31051;51.540;5.852;2023-06-24T17:19:30;29.1;38.7
45315;SHT31;31051;51.540;5.852;2023-06-24T17:32:17;28.8;38.9
45315;SHT31;31051;51.540;5.852;2023-06-24T17:45:05;28.8;40.0
45315;SHT31;31051;51.540;5.852;2023-06-24T17:57:52;28.8;40.5
45315;SHT31;31051;51.540;5.852;2023-06-24T18:10:40;28.9;42.9
45315;SHT31;31051;51.540;5.852;2023-06-24T18:23:27;28.6;43.6
45315;SHT31;31051;51.540;5.852;2023-06-24T18:36:15;28.3;43.4
45315;SHT31;31051;51.540;5.852;2023-06-24T18:49:02;28.0;44.0
45315;SHT31;31051;51.540;5.852;2023-06-24T19:01:50;27.8;47.0
45315;SHT31;31051;51.540;5.852;2023-06-24T19:14:37;27.7;52.7
45315;SHT31;31051;51.540;5.852;2023-06-24T19:27:25;26.7;55.7
45315;SHT31;31051;51.540;5.852;2023-06-24T19:40:12;25.7;57.6
45315;SHT31;31051;51.540;5.852;2023-06-24T19:52:59;24.2;58.9
45315;SHT31;31051;51.540;5.852;2023-06-24T20:05:47;23.0;62.0
45315;SHT31;31051;51.540;5.852;2023-06-24T20:18:35;22.1;63.5
45315;SHT31;31051;51.540;5.852;2023-06-24T20:31:34;21.5;64.5
45315;SHT31;31051;51.540;5.852;2023-06-24T20:44:22;20.9;65.6
45315;SHT31;31051;51.540;5.852;2023-06-24T20:57:10;20.5;68.9
45315;SHT31;31051;51.540;5.852;2023-06-24T21:10:00;20.1;70.5
45315;SHT31;31051;51.540;5.852;2023-06-24T21:22:58;19.7;70.1
45315;SHT31;31051;51.540;5.852;2023-06-24T21:35:47;19.5;71.1
45315;SHT31;31051;51.540;5.852;2023-06-24T21:48:35;19.1;72.2
45315;SHT31;31051;51.540;5.852;2023-06-24T22:01:24;18.8;73.0
45315;SHT31;31051;51.540;5.852;2023-06-24T22:14:24;18.6;74.5
45315;SHT31;31051;51.540;5.852;2023-06-24T22:27:23;18.3;75.6
45315;SHT31;31051;51.540;5.852;2023-06-24T22:40:23;18.0;76.3
45315;SHT31;31051;51.540;5.852;2023-06-24T22:53:21;17.8;76.4
45315;SHT31;31051;51.540;5.852;2023-06-24T23:06:10;17.6;77.5
45315;SHT31;31051;51.540;5.852;2023-06-24T23:19:10;17.5;77.2
45315;SHT31;31051;51.540;5.852;2023-06-24T23:32:09;17.3;77.7
45315;SHT31;31051;51.540;5.852;2023-06-24T23:45:09;17.1;78.5
45315;SHT31;31051;51.540;5.852;2023-06-24T23:58:07;17.0;78.1
